Time;durP1;ratioP1;P1;durP2;ratioP2;P2;SDS_P1;SDS_P2;PMS_P1;PMS_P2;Temp;Humidity;BMP_temperature;BMP_pressure;BME280_temperature;BME280_humidity;BME280_pressure;Samples;Min_cycle;Max_cycle;Signal;HPM_P1;HPM_P2
2022/11/13 00:00:07;;;;;;;;;;;;;;;19.40;45.49;96660.28;10513616;28;2920;-52
2022/11/13 00:05:07;;;;;;;;;;;;;;;19.41;45.26;96664.50;10500521;28;2936;-52
2022/11/13 00:10:08;;;;;;;;;;;;;;;19.40;45.46;96655.81;10510879;28;2883;-49
2022/11/13 00:15:08;;;;;;;;;;;;;;;19.37;45.36;96651.03;10504977;28;2935;-52
2022/11/13 00:20:09;;;;;;;;;;;;;;;19.38;45.30;96652.63;10507428;28;2860;-51
2022/11/13 00:25:09;;;;;;;;;;;;;;;19.35;45.09;96639.97;10509807;28;2983;-53
2022/11/13 00:30:10;;;;;;;;;;;;;;;19.37;45.21;96623.97;10504992;28;2821;-52
2022/11/13 00:35:10;;;;;;;;;;;;;;;19.33;45.17;96630.72;10500414;28;2875;-53
2022/11/13 00:40:10;;;;;;;;;;;;;;;19.33;45.39;96628.09;10509451;28;2840;-50
2022/11/13 00:45:11;;;;;;;;;;;;;;;19.30;45.40;96624.13;10510304;28;2872;-52
2022/11/13 00:50:11;;;;;;;;;;;;;;;19.29;45.19;96617.25;10508661;28;2905;-51
2022/11/13 00:55:11;;;;;;;;;;;;;;;19.29;45.35;96611.19;10508476;28;2888;-51
2022/11/13 01:00:11;;;;;;;;;;;;;;;19.28;45.30;96607.00;10504202;28;3125;-52
2022/11/13 01:05:12;;;;;;;;;;;;;;;19.25;45.23;96604.84;10506458;28;3161;-52
2022/11/13 01:10:12;;;;;;;;;;;;;;;19.26;45.24;96591.47;10514627;28;3042;-48
2022/11/13 01:15:12;;;;;;;;;;;;;;;19.24;45.19;96584.88;10507315;28;3050;-51
2022/11/13 01:20:13;;;;;;;;;;;;;;;19.24;45.23;96582.25;10511304;28;3167;-50
2022/11/13 01:25:13;;;;;;;;;;;;;;;19.21;45.27;96572.19;10513239;28;3149;-52
2022/11/13 01:30:14;;;;;;;;;;;;;;;19.23;45.09;96565.66;10520179;28;3158;-52
2022/11/13 01:35:14;;;;;;;;;;;;;;;19.21;45.10;96559.06;10513226;28;3193;-52
2022/11/13 01:40:14;;;;;;;;;;;;;;;19.18;45.21;96559.56;10510250;28;3177;-52
2022/11/13 01:45:33;;;;;;;;;;;;;;;19.18;45.15;96556.94;10508765;28;3150;-49
2022/11/13 01:50:33;;;;;;;;;;;;;;;19.13;45.14;96541.09;10507190;28;3078;-50
2022/11/13 01:55:34;;;;;;;;;;;;;;;19.14;44.95;96535.59;10520641;28;3149;-53
2022/11/13 02:00:34;;;;;;;;;;;;;;;19.12;45.00;96535.06;10510587;28;3269;-52
2022/11/13 02:05:34;;;;;;;;;;;;;;;19.12;44.97;96532.44;10496543;28;3284;-51
2022/11/13 02:10:34;;;;;;;;;;;;;;;19.10;45.13;96533.72;10510588;28;3105;-53
2022/11/13 02:15:35;;;;;;;;;;;;;;;19.09;45.07;96537.38;10507069;28;3182;-52
2022/11/13 02:20:44;;;;;;;;;;;;;;;19.08;45.04;96530.53;10501483;28;3153;-54
2022/11/13 02:25:44;;;;;;;;;;;;;;;19.08;44.98;96520.03;10502593;28;3494;-51
2022/11/13 02:30:44;;;;;;;;;;;;;;;19.06;44.89;96520.25;10501828;28;3183;-52
2022/11/13 02:35:45;;;;;;;;;;;;;;;19.04;44.95;96514.44;10508616;28;3104;-50
2022/11/13 02:40:45;;;;;;;;;;;;;;;19.05;44.66;96504.72;10499018;28;3234;-52
2022/11/13 02:45:45;;;;;;;;;;;;;;;19.03;44.81;96494.47;10507009;28;3212;-53
2022/11/13 02:50:45;;;;;;;;;;;;;;;19.02;44.84;96486.84;10497750;28;3117;-51
2022/11/13 02:55:46;;;;;;;;;;;;;;;18.99;45.00;96480.25;10502420;28;3150;-53
2022/11/13 03:00:46;;;;;;;;;;;;;;;18.99;44.80;96477.63;10499754;28;3110;-51
2022/11/13 03:05:47;;;;;;;;;;;;;;;18.98;44.75;96467.38;10500481;28;3214;-49
2022/11/13 03:10:47;;;;;;;;;;;;;;;18.97;44.82;96453.44;10503934;28;3086;-50
2022/11/13 03:15:48;;;;;;;;;;;;;;;18.98;44.50;96452.38;10505066;28;3138;-53
2022/11/13 03:20:52;;;;;;;;;;;;;;;18.97;44.69;96450.78;10498765;28;3097;-51
2022/11/13 03:25:53;;;;;;;;;;;;;;;18.96;44.60;96449.19;10509041;28;3157;-53
2022/11/13 03:30:53;;;;;;;;;;;;;;;18.94;44.66;96451.28;10502908;28;3082;-54
2022/11/13 03:35:53;;;;;;;;;;;;;;;18.91;44.66;96436.03;10504204;28;3270;-52
2022/11/13 03:40:54;;;;;;;;;;;;;;;18.91;44.72;96433.38;10509330;28;3170;-49
2022/11/13 03:45:54;;;;;;;;;;;;;;;18.92;44.48;96421.81;10506480;28;3159;-51
2022/11/13 03:50:54;;;;;;;;;;;;;;;18.89;44.60;96406.56;10503747;28;3129;-53
2022/11/13 03:55:55;;;;;;;;;;;;;;;18.90;44.48;96412.63;10504244;28;3090;-54
2022/11/13 04:00:55;;;;;;;;;;;;;;;18.88;44.53;96404.19;10504259;28;3181;-53
2022/11/13 04:05:55;;;;;;;;;;;;;;;18.89;44.52;96403.16;10502879;28;3161;-54
2022/11/13 04:11:04;;;;;;;;;;;;;;;18.86;44.60;96401.81;10501972;28;3205;-52
2022/11/13 04:16:06;;;;;;;;;;;;;;;18.87;44.49;96394.72;10516512;28;3109;-52
2022/11/13 04:21:06;;;;;;;;;;;;;;;18.88;44.27;96394.47;10502987;28;3182;-53
2022/11/13 04:26:06;;;;;;;;;;;;;;;18.86;44.54;96396.53;10516039;28;3197;-50
2022/11/13 04:31:06;;;;;;;;;;;;;;;18.89;44.48;96396.06;10513770;28;3194;-51
2022/11/13 04:36:07;;;;;;;;;;;;;;;18.95;44.45;96387.19;10519940;28;3130;-53
2022/11/13 04:46:26;;;;;;;;;;;;;;;19.13;44.35;96376.34;10510770;28;3502;-52
2022/11/13 04:51:26;;;;;;;;;;;;;;;19.17;44.27;96374.78;10510918;28;3142;-50
2022/11/13 04:56:28;;;;;;;;;;;;;;;19.20;43.95;96365.63;10506457;28;3082;-50
2022/11/13 05:01:28;;;;;;;;;;;;;;;19.22;43.64;96364.34;10506287;28;3184;-49
2022/11/13 05:06:28;;;;;;;;;;;;;;;19.27;43.35;96360.94;10506061;28;3534;-51
2022/11/13 05:11:28;;;;;;;;;;;;;;;19.32;43.06;96361.78;10516760;28;3220;-52
2022/11/13 05:16:29;;;;;;;;;;;;;;;19.35;42.70;96363.94;10505725;28;3101;-52
2022/11/13 05:21:29;;;;;;;;;;;;;;;19.37;41.96;96353.97;10509490;28;3165;-52
2022/11/13 05:26:39;;;;;;;;;;;;;;;19.40;41.38;96336.91;10511478;28;3121;-53
2022/11/13 05:31:40;;;;;;;;;;;;;;;19.43;41.60;96339.81;10505617;28;3152;-49
2022/11/13 05:36:40;;;;;;;;;;;;;;;19.48;41.82;96334.59;10504184;28;3172;-52
2022/11/13 05:41:40;;;;;;;;;;;;;;;19.52;41.29;96316.47;10504255;28;3240;-55
2022/11/13 05:46:40;;;;;;;;;;;;;;;19.55;41.67;96315.97;10511978;28;3106;-53
2022/11/13 05:51:41;;;;;;;;;;;;;;;19.61;41.20;96308.91;10503916;28;3144;-52
2022/11/13 05:56:41;;;;;;;;;;;;;;;19.64;40.81;96311.81;10513503;28;3067;-53
2022/11/13 06:01:42;;;;;;;;;;;;;;;19.66;40.91;96308.94;10521838;28;3204;-52
2022/11/13 06:06:42;;;;;;;;;;;;;;;19.67;40.66;96294.75;10520588;28;3486;-48
2022/11/13 06:11:43;;;;;;;;;;;;;;;19.70;40.56;96297.63;10507723;28;3248;-52
2022/11/13 06:16:43;;;;;;;;;;;;;;;19.72;39.95;96287.66;10501619;28;3168;-52
2022/11/13 06:21:43;;;;;;;;;;;;;;;19.73;39.79;96291.09;10505245;28;3161;-51
2022/11/13 06:26:43;;;;;;;;;;;;;;;19.76;40.42;96277.44;10514787;28;3140;-53
2022/11/13 06:31:44;;;;;;;;;;;;;;;19.77;39.56;96279.81;10507044;28;3244;-53
2022/11/13 06:36:44;;;;;;;;;;;;;;;19.78;40.00;96280.59;10505752;28;3278;-53
2022/11/13 06:41:44;;;;;;;;;;;;;;;19.77;39.78;96263.22;10510848;28;3267;-53
2022/11/13 06:46:44;;;;;;;;;;;;;;;19.80;40.34;96255.63;10506529;28;3156;-52
2022/11/13 06:51:45;;;;;;;;;;;;;;;19.86;40.13;96248.53;10511488;28;3173;-52
2022/11/13 06:56:45;;;;;;;;;;;;;;;19.91;40.64;96235.41;10516192;28;3150;-51
2022/11/13 07:01:45;;;;;;;;;;;;;;;20.14;42.38;96224.44;10511229;28;3126;-49
2022/11/13 07:06:46;;;;;;;;;;;;;;;20.09;41.61;96217.31;10500097;28;3271;-52
2022/11/13 07:11:46;;;;;;;;;;;;;;;20.07;39.51;96219.41;10505837;28;3102;-53
2022/11/13 07:16:46;;;;;;;;;;;;;;;20.07;40.13;96224.66;10506466;28;3161;-52
2022/11/13 07:21:47;;;;;;;;;;;;;;;20.11;39.66;96225.72;10504824;28;3137;-52
2022/11/13 07:26:47;;;;;;;;;;;;;;;20.22;40.70;96216.06;10506282;28;3118;-50
2022/11/13 07:31:48;;;;;;;;;;;;;;;20.23;41.17;96207.13;10497629;28;3150;-52
2022/11/13 07:36:48;;;;;;;;;;;;;;;20.26;41.01;96209.22;10511940;28;3019;-53
2022/11/13 07:41:49;;;;;;;;;;;;;;;20.28;41.43;96223.72;10505912;28;3114;-50
2022/11/13 07:46:49;;;;;;;;;;;;;;;20.31;41.43;96240.84;10510416;28;3230;-53
2022/11/13 07:51:49;;;;;;;;;;;;;;;20.34;41.51;96266.63;10513922;28;3105;-52
2022/11/13 07:56:50;;;;;;;;;;;;;;;20.35;41.50;96260.34;10514194;28;3094;-54
2022/11/13 08:01:50;;;;;;;;;;;;;;;20.37;41.47;96252.97;10510050;28;3114;-52
2022/11/13 08:06:51;;;;;;;;;;;;;;;20.36;41.10;96269.78;10525311;28;3168;-53
2022/11/13 08:11:51;;;;;;;;;;;;;;;20.35;40.29;96251.63;10516598;28;3327;-53
2022/11/13 08:16:51;;;;;;;;;;;;;;;20.32;40.06;96241.63;10509605;28;3125;-53
2022/11/13 08:21:52;;;;;;;;;;;;;;;20.31;39.70;96238.22;10518022;28;3213;-50
2022/11/13 08:26:53;;;;;;;;;;;;;;;20.33;39.67;96212.41;10507161;28;3106;-53
2022/11/13 08:31:53;;;;;;;;;;;;;;;20.37;40.67;96202.13;10513563;28;3459;-53
2022/11/13 08:36:54;;;;;;;;;;;;;;;20.40;41.47;96212.16;10506768;28;3165;-51
2022/11/13 08:41:54;;;;;;;;;;;;;;;20.38;39.47;96215.03;10512391;28;3268;-50
2022/11/13 08:46:55;;;;;;;;;;;;;;;20.40;39.69;96220.88;10515674;28;3275;-51
2022/11/13 08:51:55;;;;;;;;;;;;;;;20.37;39.28;96213.47;10506308;28;3582;-50
2022/11/13 08:57:04;;;;;;;;;;;;;;;20.35;39.33;96212.13;10515573;28;3143;-53
2022/11/13 09:02:04;;;;;;;;;;;;;;;20.40;39.25;96202.44;10518710;28;3275;-51
2022/11/13 09:07:04;;;;;;;;;;;;;;;20.41;39.67;96198.72;10515641;28;3180;-52
2022/11/13 09:12:05;;;;;;;;;;;;;;;20.39;38.56;96206.09;10513759;28;3324;-53
2022/11/13 09:17:05;;;;;;;;;;;;;;;20.41;39.05;96195.28;10514562;28;3252;-49
2022/11/13 09:22:05;;;;;;;;;;;;;;;20.59;40.46;96198.22;10507061;28;3122;-54
2022/11/13 09:27:06;;;;;;;;;;;;;;;20.54;39.12;96200.06;10514483;28;3066;-53
2022/11/13 09:32:06;;;;;;;;;;;;;;;20.54;39.94;96197.44;10511704;28;3114;-53
2022/11/13 09:37:06;;;;;;;;;;;;;;;20.52;40.84;96195.06;10513333;28;3138;-53
2022/11/13 09:42:14;;;;;;;;;;;;;;;20.52;39.30;96173.19;10515085;28;3167;-54
2022/11/13 09:47:44;;;;;;;;;;;;;;;20.53;40.00;96177.41;10509207;28;3141;-50
2022/11/13 09:52:45;;;;;;;;;;;;;;;20.59;41.93;96153.44;10501341;28;2988;-54
2022/11/13 09:57:54;;;;;;;;;;;;;;;20.59;42.27;96163.19;10512997;28;3186;-51
2022/11/13 10:03:14;;;;;;;;;;;;;;;20.56;41.52;96151.34;10519422;28;3145;-53
2022/11/13 10:08:18;;;;;;;;;;;;;;;20.55;42.18;96155.03;10513258;28;3198;-51
2022/11/13 10:13:20;;;;;;;;;;;;;;;20.57;42.30;96166.09;10508694;28;3184;-54
2022/11/13 10:18:22;;;;;;;;;;;;;;;20.54;41.97;96161.34;10513294;28;3305;-52
2022/11/13 10:23:33;;;;;;;;;;;;;;;20.56;42.78;96143.44;10510797;28;3058;-53
2022/11/13 10:28:33;;;;;;;;;;;;;;;20.52;42.67;96137.13;10513891;28;3187;-54
2022/11/13 10:33:34;;;;;;;;;;;;;;;20.48;42.98;96128.19;10508136;28;3164;-53
2022/11/13 10:39:07;;;;;;;;;;;;;;;20.45;43.15;96122.63;10506052;28;3193;-53
2022/11/13 10:44:19;;;;;;;;;;;;;;;20.43;42.83;96117.63;10491224;28;3202;-51
2022/11/13 10:49:20;;;;;;;;;;;;;;;20.38;42.84;96099.19;10516318;28;3177;-53
2022/11/13 10:54:21;;;;;;;;;;;;;;;20.37;43.03;96083.66;10508874;28;3149;-50
2022/11/13 10:59:21;;;;;;;;;;;;;;;20.37;42.96;96078.38;10501429;28;3275;-50
2022/11/13 11:04:23;;;;;;;;;;;;;;;20.30;43.03;96073.38;10514447;28;3193;-49
2022/11/13 11:09:28;;;;;;;;;;;;;;;20.30;43.13;96054.97;10508013;28;3428;-52
2022/11/13 11:14:30;;;;;;;;;;;;;;;20.30;43.17;96054.97;10499134;28;3191;-53
2022/11/13 11:19:30;;;;;;;;;;;;;;;20.27;43.38;96051.03;10508040;28;3078;-51
2022/11/13 11:24:35;;;;;;;;;;;;;;;20.23;43.10;96038.66;10506015;28;3130;-53
2022/11/13 11:29:37;;;;;;;;;;;;;;;20.27;43.12;96040.50;10501623;28;3169;-54
2022/11/13 11:34:44;;;;;;;;;;;;;;;20.23;43.50;96043.91;10508597;28;3143;-54
2022/11/13 11:39:47;;;;;;;;;;;;;;;20.30;43.07;96023.38;10514063;28;3180;-51
2022/11/13 11:44:56;;;;;;;;;;;;;;;20.29;43.03;96011.28;10508245;28;3221;-53
2022/11/13 11:49:56;;;;;;;;;;;;;;;20.33;42.96;95996.53;10504347;28;3102;-50
2022/11/13 11:55:15;;;;;;;;;;;;;;;20.32;43.04;95997.56;10513732;28;3200;-53
2022/11/13 12:00:16;;;;;;;;;;;;;;;20.32;43.07;95978.38;10507624;28;3098;-49
2022/11/13 12:05:23;;;;;;;;;;;;;;;20.30;42.80;95981.25;10515145;28;3304;-49
2022/11/13 12:10:26;;;;;;;;;;;;;;;20.20;43.15;95979.44;10497424;28;3235;-54
2022/11/13 12:15:33;;;;;;;;;;;;;;;20.19;43.21;95984.94;10512338;28;3101;-53
2022/11/13 12:20:37;;;;;;;;;;;;;;;20.17;43.34;95979.16;10498195;28;3144;-53
2022/11/13 12:25:37;;;;;;;;;;;;;;;20.15;43.28;95968.09;10501176;28;3348;-53
2022/11/13 12:30:56;;;;;;;;;;;;;;;20.14;43.23;95955.97;10500559;28;3105;-54
2022/11/13 12:35:57;;;;;;;;;;;;;;;20.11;43.35;95941.50;10510949;28;3102;-52
2022/11/13 12:40:57;;;;;;;;;;;;;;;20.12;43.21;95926.50;10511459;28;3133;-53
2022/11/13 12:45:59;;;;;;;;;;;;;;;20.12;43.21;95932.56;10517702;28;3117;-53
2022/11/13 12:51:02;;;;;;;;;;;;;;;20.15;43.04;95916.22;10510356;28;3160;-53
2022/11/13 12:56:02;;;;;;;;;;;;;;;20.21;43.06;95930.22;10507409;28;3227;-53
2022/11/13 13:01:16;;;;;;;;;;;;;;;20.55;43.15;95931.16;10509413;28;3102;-50
2022/11/13 13:06:16;;;;;;;;;;;;;;;21.03;42.29;95912.03;10508401;28;3160;-52
2022/11/13 13:11:23;;;;;;;;;;;;;;;20.97;42.18;95902.53;10517642;28;3217;-50
2022/11/13 13:16:25;;;;;;;;;;;;;;;20.78;42.73;95892.88;10517489;28;3149;-51
2022/11/13 13:21:25;;;;;;;;;;;;;;;20.67;42.74;95876.31;10510600;28;3221;-52
2022/11/13 13:26:26;;;;;;;;;;;;;;;20.67;43.25;95881.59;10510323;28;3152;-52
2022/11/13 13:31:55;;;;;;;;;;;;;;;20.69;42.26;95884.75;10499581;28;3166;-53
2022/11/13 13:37:15;;;;;;;;;;;;;;;20.69;42.62;95879.47;10495560;28;3971;-54
2022/11/13 13:42:25;;;;;;;;;;;;;;;20.95;42.48;95866.97;10501495;28;3169;-51
2022/11/13 13:47:29;;;;;;;;;;;;;;;21.09;41.85;95865.31;10507404;28;3180;-50
2022/11/13 13:52:30;;;;;;;;;;;;;;;20.87;42.95;95841.19;10502620;28;3251;-54
2022/11/13 13:57:31;;;;;;;;;;;;;;;20.74;42.79;95831.25;10504199;28;3141;-52
2022/11/13 14:02:31;;;;;;;;;;;;;;;20.56;43.68;95827.41;10507254;28;3085;-54
2022/11/13 14:07:34;;;;;;;;;;;;;;;20.37;43.93;95825.66;10506432;28;3157;-51
2022/11/13 14:12:34;;;;;;;;;;;;;;;20.24;44.25;95834.91;10503134;28;3217;-54
2022/11/13 14:17:34;;;;;;;;;;;;;;;20.17;44.15;95826.50;10497867;28;3162;-52
2022/11/13 14:22:35;;;;;;;;;;;;;;;20.13;44.22;95839.38;10502117;28;3157;-51
2022/11/13 14:27:35;;;;;;;;;;;;;;;20.09;44.69;95816.53;10498009;28;3137;-54
2022/11/13 14:32:37;;;;;;;;;;;;;;;20.10;44.55;95818.88;10503222;28;3153;-52
2022/11/13 14:37:38;;;;;;;;;;;;;;;20.08;44.38;95813.09;10499049;28;2987;-54
2022/11/13 14:42:42;;;;;;;;;;;;;;;20.10;44.26;95797.81;10507770;28;3177;-52
2022/11/13 14:47:42;;;;;;;;;;;;;;;20.20;44.35;95799.66;10510042;28;3191;-52
2022/11/13 14:52:43;;;;;;;;;;;;;;;20.27;44.06;95802.78;10511373;28;3192;-49
2022/11/13 14:57:47;;;;;;;;;;;;;;;20.35;44.16;95811.97;10510630;28;3207;-53
2022/11/13 15:02:47;;;;;;;;;;;;;;;20.39;43.94;95798.00;10504935;28;3101;-53
2022/11/13 15:07:47;;;;;;;;;;;;;;;20.42;43.95;95786.94;10510392;28;3153;-53
2022/11/13 15:12:48;;;;;;;;;;;;;;;20.40;43.63;95783.78;10512539;28;3253;-51
2022/11/13 15:17:49;;;;;;;;;;;;;;;20.43;43.07;95783.22;10516227;28;3217;-50
2022/11/13 15:22:50;;;;;;;;;;;;;;;20.44;43.36;95782.19;10526401;28;3166;-53
2022/11/13 15:27:51;;;;;;;;;;;;;;;20.44;43.13;95790.09;10513973;28;3090;-50
2022/11/13 15:32:52;;;;;;;;;;;;;;;20.46;42.70;95785.34;10508354;28;3161;-53
2022/11/13 15:37:53;;;;;;;;;;;;;;;20.46;42.59;95785.34;10508080;28;3054;-50
2022/11/13 15:42:54;;;;;;;;;;;;;;;20.49;42.58;95783.97;10519398;28;3113;-50
2022/11/13 15:47:54;;;;;;;;;;;;;;;20.49;42.71;95781.34;10515656;28;3273;-53
2022/11/13 15:52:54;;;;;;;;;;;;;;;20.51;42.96;95773.97;10512405;28;3173;-51
2022/11/13 15:57:54;;;;;;;;;;;;;;;20.56;42.38;95774.75;10511443;28;3118;-50
2022/11/13 16:02:55;;;;;;;;;;;;;;;20.52;42.25;95778.19;10510141;28;3146;-51
2022/11/13 16:07:55;;;;;;;;;;;;;;;20.55;41.79;95778.41;10501836;28;3125;-53
2022/11/13 16:12:56;;;;;;;;;;;;;;;20.54;42.00;95779.50;10509790;28;3106;-54
2022/11/13 16:17:56;;;;;;;;;;;;;;;20.57;42.54;95770.25;10507677;28;3132;-53
2022/11/13 16:22:56;;;;;;;;;;;;;;;20.57;42.14;95765.78;10511272;28;3108;-49
2022/11/13 16:27:57;;;;;;;;;;;;;;;20.57;41.69;95778.16;10510884;28;3146;-53
2022/11/13 16:32:57;;;;;;;;;;;;;;;20.57;41.91;95771.03;10515527;28;3152;-49
2022/11/13 16:37:57;;;;;;;;;;;;;;;20.59;42.15;95763.66;10507995;28;3131;-53
2022/11/13 16:42:57;;;;;;;;;;;;;;;20.59;42.10;95763.66;10502888;28;3105;-53
2022/11/13 16:47:58;;;;;;;;;;;;;;;20.59;42.23;95761.00;10502894;28;3082;-53
2022/11/13 16:52:58;;;;;;;;;;;;;;;20.60;41.49;95767.88;10516460;28;3266;-52
2022/11/13 16:57:58;;;;;;;;;;;;;;;20.62;41.46;95757.06;10501761;28;3184;-54
2022/11/13 17:02:58;;;;;;;;;;;;;;;20.60;42.26;95738.91;10509899;28;3163;-51
2022/11/13 17:08:00;;;;;;;;;;;;;;;20.63;41.83;95750.75;10502035;28;3106;-52
2022/11/13 17:13:00;;;;;;;;;;;;;;;20.59;41.55;95737.31;10509211;28;3146;-53
2022/11/13 17:18:01;;;;;;;;;;;;;;;20.60;41.41;95746.81;10498063;28;3169;-54
2022/11/13 17:23:01;;;;;;;;;;;;;;;20.60;41.86;95746.81;10501823;28;3105;-53
2022/11/13 17:28:01;;;;;;;;;;;;;;;20.60;41.21;95744.16;10504890;28;3161;-51
2022/11/13 17:33:01;;;;;;;;;;;;;;;20.63;41.69;95746.25;10503025;28;3221;-50
2022/11/13 17:38:06;;;;;;;;;;;;;;;20.61;41.04;95739.69;10516084;28;3269;-54
2022/11/13 17:43:07;;;;;;;;;;;;;;;20.64;41.75;95737.28;10508130;28;3069;-53
2022/11/13 17:48:07;;;;;;;;;;;;;;;20.64;41.55;95753.09;10506300;28;3129;-53
2022/11/13 17:53:08;;;;;;;;;;;;;;;20.63;41.55;95748.88;10499994;28;3190;-49
2022/11/13 17:58:08;;;;;;;;;;;;;;;20.64;41.14;95750.47;10499501;28;3170;-55
2022/11/13 18:03:08;;;;;;;;;;;;;;;20.65;40.74;95757.28;10505255;28;3312;-51
2022/11/13 18:08:11;;;;;;;;;;;;;;;20.67;41.67;95755.16;10507273;28;3113;-50
2022/11/13 18:13:12;;;;;;;;;;;;;;;20.66;41.58;95758.88;10512148;28;3189;-49
2022/11/13 18:18:12;;;;;;;;;;;;;;;20.65;40.93;95752.03;10505272;28;3066;-53
2022/11/13 18:23:12;;;;;;;;;;;;;;;20.66;40.91;95747.53;10498207;28;3270;-50
2022/11/13 18:28:12;;;;;;;;;;;;;;;20.67;41.29;95755.16;10506394;28;3218;-49
2022/11/13 18:33:19;;;;;;;;;;;;;;;20.70;40.98;95754.63;10507553;28;3130;-52
2022/11/13 18:38:20;;;;;;;;;;;;;;;20.69;41.09;95763.59;10508174;28;3201;-55
2022/11/13 18:43:20;;;;;;;;;;;;;;;20.73;41.15;95745.41;10506593;28;3149;-53
2022/11/13 18:48:20;;;;;;;;;;;;;;;20.71;40.95;95745.66;10508869;28;3176;-51
2022/11/13 18:53:21;;;;;;;;;;;;;;;20.69;39.69;95736.47;10501022;28;3150;-52
2022/11/13 18:58:21;;;;;;;;;;;;;;;20.72;40.80;95755.16;10498875;28;3165;-51
2022/11/13 19:03:22;;;;;;;;;;;;;;;20.84;41.36;95754.78;10511374;28;3078;-52
2022/11/13 19:08:22;;;;;;;;;;;;;;;20.81;41.45;95766.66;10501127;28;3161;-50
2022/11/13 19:13:22;;;;;;;;;;;;;;;20.81;40.90;95764.03;10506617;28;3223;-48
2022/11/13 19:18:22;;;;;;;;;;;;;;;20.81;40.79;95765.88;10517099;28;3183;-52
2022/11/13 19:23:23;;;;;;;;;;;;;;;20.81;40.18;95771.16;10505993;28;3062;-52
2022/11/13 19:28:23;;;;;;;;;;;;;;;20.81;41.67;95769.28;10507027;28;3212;-51
2022/11/13 19:33:24;;;;;;;;;;;;;;;20.85;41.69;95756.38;10503046;28;3189;-52
2022/11/13 19:38:26;;;;;;;;;;;;;;;20.88;41.51;95767.16;10505482;28;3173;-48
2022/11/13 19:43:26;;;;;;;;;;;;;;;20.86;41.44;95769.28;10509844;28;3157;-53
2022/11/13 19:48:27;;;;;;;;;;;;;;;20.87;41.68;95760.31;10487980;28;3173;-49
2022/11/13 19:53:28;;;;;;;;;;;;;;;20.86;41.63;95765.84;10457968;28;1103981;-50
2022/11/13 19:58:28;;;;;;;;;;;;;;;20.91;41.77;95758.72;10503700;28;3105;-53
2022/11/13 20:03:28;;;;;;;;;;;;;;;20.86;41.44;95773.75;10506771;28;3086;-50
2022/11/13 20:08:34;;;;;;;;;;;;;;;20.84;41.64;95767.97;10516423;28;3114;-52
2022/11/13 20:13:35;;;;;;;;;;;;;;;20.84;41.22;95762.69;10509860;28;3145;-51
2022/11/13 20:18:36;;;;;;;;;;;;;;;20.82;41.56;95752.44;10497955;28;3134;-53
2022/11/13 20:23:36;;;;;;;;;;;;;;;20.79;40.80;95742.44;10508797;28;3102;-49
2022/11/13 20:28:37;;;;;;;;;;;;;;;20.78;41.20;95748.78;10499431;28;3215;-52
2022/11/13 20:33:38;;;;;;;;;;;;;;;20.84;42.01;95741.63;10494885;28;3108;-53
2022/11/13 20:38:38;;;;;;;;;;;;;;;20.83;42.54;95751.38;10503320;28;3176;-51
2022/11/13 20:43:42;;;;;;;;;;;;;;;20.84;42.65;95752.94;10509100;28;3149;-52
2022/11/13 20:48:44;;;;;;;;;;;;;;;20.77;42.90;95752.47;10509738;28;3237;-49
2022/11/13 20:53:45;;;;;;;;;;;;;;;20.76;42.91;95748.28;10498500;28;3122;-50
2022/11/13 20:58:45;;;;;;;;;;;;;;;20.72;43.01;95744.59;10505801;28;3149;-52
2022/11/13 21:03:46;;;;;;;;;;;;;;;20.71;43.25;95745.66;10520654;28;3415;-54
2022/11/13 21:08:46;;;;;;;;;;;;;;;20.67;43.79;95747.25;10513303;28;3198;-54
2022/11/13 21:13:47;;;;;;;;;;;;;;;20.66;43.82;95748.34;10503933;28;3257;-52
2022/11/13 21:18:48;;;;;;;;;;;;;;;20.64;43.89;95734.66;10514847;28;3144;-49
2022/11/13 21:23:48;;;;;;;;;;;;;;;20.60;43.60;95741.53;10505240;28;3126;-51
2022/11/13 21:28:48;;;;;;;;;;;;;;;20.58;43.90;95746.28;10513698;28;3236;-52
2022/11/13 21:33:49;;;;;;;;;;;;;;;20.52;44.25;95736.84;10502734;28;3225;-51
2022/11/13 21:38:49;;;;;;;;;;;;;;;20.50;43.97;95728.44;10500462;28;3086;-52
2022/11/13 21:43:57;;;;;;;;;;;;;;;20.43;43.91;95717.41;10503178;28;3277;-51
2022/11/13 21:48:58;;;;;;;;;;;;;;;20.42;43.71;95717.69;10501374;28;3211;-52
2022/11/13 21:53:58;;;;;;;;;;;;;;;20.37;43.70;95720.34;10499376;28;3158;-52
2022/11/13 21:58:59;;;;;;;;;;;;;;;20.35;43.68;95715.34;10503758;28;3035;-51
2022/11/13 22:03:59;;;;;;;;;;;;;;;20.36;43.57;95721.41;10507360;28;3275;-51
2022/11/13 22:09:06;;;;;;;;;;;;;;;20.30;43.45;95728.53;10503990;28;3188;-48
2022/11/13 22:14:07;;;;;;;;;;;;;;;20.25;43.56;95723.31;10504446;28;3189;-54
2022/11/13 22:19:14;;;;;;;;;;;;;;;20.23;43.45;95725.44;10504870;28;3121;-51
2022/11/13 22:24:15;;;;;;;;;;;;;;;20.19;43.61;95732.25;10507435;28;3196;-50
2022/11/13 22:29:15;;;;;;;;;;;;;;;20.17;43.53;95742.28;10498655;28;3149;-52
2022/11/13 22:34:15;;;;;;;;;;;;;;;20.13;43.72;95734.13;10505822;28;3165;-53
2022/11/13 22:39:16;;;;;;;;;;;;;;;20.09;43.69;95743.59;10506029;28;3165;-52
2022/11/13 22:44:17;;;;;;;;;;;;;;;20.06;43.64;95731.00;10511120;28;3157;-51
2022/11/13 22:49:18;;;;;;;;;;;;;;;20.02;43.80;95727.34;10507230;28;3188;-53
2022/11/13 22:54:18;;;;;;;;;;;;;;;20.02;43.54;95732.59;10512576;28;3229;-52
2022/11/13 22:59:18;;;;;;;;;;;;;;;19.99;43.41;95712.09;10511262;28;3160;-51
2022/11/13 23:04:19;;;;;;;;;;;;;;;19.99;43.35;95719.22;10510704;28;3094;-53
2022/11/13 23:09:19;;;;;;;;;;;;;;;19.95;43.68;95723.41;10510634;28;3173;-52
2022/11/13 23:14:19;;;;;;;;;;;;;;;19.95;43.18;95718.16;10510277;28;3153;-53
2022/11/13 23:19:20;;;;;;;;;;;;;;;19.92;43.46;95705.56;10508426;28;3126;-51
2022/11/13 23:24:21;;;;;;;;;;;;;;;19.88;43.35;95688.72;10506423;28;3141;-52
2022/11/13 23:29:31;;;;;;;;;;;;;;;19.87;43.41;95684.50;10513821;28;3095;-52
2022/11/13 23:34:32;;;;;;;;;;;;;;;19.85;43.39;95676.09;10515091;28;3219;-54
2022/11/13 23:39:32;;;;;;;;;;;;;;;19.81;43.34;95678.50;10511829;28;3160;-48
2022/11/13 23:44:33;;;;;;;;;;;;;;;19.79;43.34;95685.06;10511244;28;3101;-50
2022/11/13 23:49:33;;;;;;;;;;;;;;;19.77;43.37;95681.94;10501523;28;3212;-52
2022/11/13 23:54:33;;;;;;;;;;;;;;;19.75;43.39;95694.56;10504989;28;3125;-52
2022/11/13 23:59:33;;;;;;;;;;;;;;;19.72;43.39;95692.50;10502793;28;3209;-50
